sensor_id;sensor_type;location;lat;lon;timestamp;P1;durP1;ratioP1;P2;durP2;ratioP2
41817;SDS011;27493;51.730;5.294;2023-03-14T00:01:48;6.43;;;2.73;;
41817;SDS011;27493;51.730;5.294;2023-03-14T00:04:14;8.57;;;2.07;;
41817;SDS011;27493;51.730;5.294;2023-03-14T00:06:39;6.40;;;2.20;;
41817;SDS011;27493;51.730;5.294;2023-03-14T00:09:04;10.83;;;2.17;;
41817;SDS011;27493;51.730;5.294;2023-03-14T00:11:29;7.73;;;2.03;;
41817;SDS011;27493;51.730;5.294;2023-03-14T00:13:55;6.77;;;2.20;;
41817;SDS011;27493;51.730;5.294;2023-03-14T00:16:20;8.47;;;2.03;;
41817;SDS011;27493;51.730;5.294;2023-03-14T00:18:45;8.63;;;2.60;;
41817;SDS011;27493;51.730;5.294;2023-03-14T00:21:11;6.53;;;2.00;;
41817;SDS011;27493;51.730;5.294;2023-03-14T00:23:37;6.60;;;1.90;;
41817;SDS011;27493;51.730;5.294;2023-03-14T00:26:03;6.17;;;2.20;;
41817;SDS011;27493;51.730;5.294;2023-03-14T00:28:29;4.87;;;2.00;;
41817;SDS011;27493;51.730;5.294;2023-03-14T00:30:54;4.03;;;2.00;;
41817;SDS011;27493;51.730;5.294;2023-03-14T00:33:20;3.37;;;1.87;;
41817;SDS011;27493;51.730;5.294;2023-03-14T00:36:19;7.10;;;2.20;;
41817;SDS011;27493;51.730;5.294;2023-03-14T00:38:37;8.60;;;2.27;;
41817;SDS011;27493;51.730;5.294;2023-03-14T00:41:03;5.13;;;2.27;;
41817;SDS011;27493;51.730;5.294;2023-03-14T00:43:29;6.80;;;2.00;;
41817;SDS011;27493;51.730;5.294;2023-03-14T00:45:54;4.73;;;1.90;;
41817;SDS011;27493;51.730;5.294;2023-03-14T00:48:20;8.83;;;2.10;;
41817;SDS011;27493;51.730;5.294;2023-03-14T00:50:45;5.30;;;2.40;;
41817;SDS011;27493;51.730;5.294;2023-03-14T00:53:10;5.33;;;1.50;;
41817;SDS011;27493;51.730;5.294;2023-03-14T00:55:36;3.37;;;1.67;;
41817;SDS011;27493;51.730;5.294;2023-03-14T00:58:02;8.37;;;2.10;;
41817;SDS011;27493;51.730;5.294;2023-03-14T01:00:27;5.37;;;2.00;;
41817;SDS011;27493;51.730;5.294;2023-03-14T01:02:52;5.90;;;2.33;;
41817;SDS011;27493;51.730;5.294;2023-03-14T01:05:17;8.53;;;2.10;;
41817;SDS011;27493;51.730;5.294;2023-03-14T01:07:42;5.40;;;1.83;;
41817;SDS011;27493;51.730;5.294;2023-03-14T01:10:08;5.40;;;1.73;;
41817;SDS011;27493;51.730;5.294;2023-03-14T01:12:34;5.60;;;1.63;;
41817;SDS011;27493;51.730;5.294;2023-03-14T01:14:59;7.77;;;2.20;;
41817;SDS011;27493;51.730;5.294;2023-03-14T01:17:24;5.97;;;2.20;;
41817;SDS011;27493;51.730;5.294;2023-03-14T01:19:50;5.53;;;1.63;;
41817;SDS011;27493;51.730;5.294;2023-03-14T01:22:15;5.77;;;1.77;;
41817;SDS011;27493;51.730;5.294;2023-03-14T01:24:40;11.30;;;2.20;;
41817;SDS011;27493;51.730;5.294;2023-03-14T01:27:05;8.10;;;1.87;;
41817;SDS011;27493;51.730;5.294;2023-03-14T01:29:30;5.77;;;2.10;;
41817;SDS011;27493;51.730;5.294;2023-03-14T01:31:56;11.90;;;1.77;;
41817;SDS011;27493;51.730;5.294;2023-03-14T01:34:21;5.47;;;2.07;;
41817;SDS011;27493;51.730;5.294;2023-03-14T01:36:46;3.73;;;1.40;;
41817;SDS011;27493;51.730;5.294;2023-03-14T01:39:11;5.67;;;1.67;;
41817;SDS011;27493;51.730;5.294;2023-03-14T01:41:38;6.27;;;1.73;;
41817;SDS011;27493;51.730;5.294;2023-03-14T01:44:03;7.70;;;2.00;;
41817;SDS011;27493;51.730;5.294;2023-03-14T01:46:32;6.60;;;2.10;;
41817;SDS011;27493;51.730;5.294;2023-03-14T01:54:18;6.73;;;1.73;;
41817;SDS011;27493;51.730;5.294;2023-03-14T01:56:45;7.03;;;1.70;;
41817;SDS011;27493;51.730;5.294;2023-03-14T01:59:11;12.40;;;1.90;;
41817;SDS011;27493;51.730;5.294;2023-03-14T02:01:36;10.07;;;2.10;;
41817;SDS011;27493;51.730;5.294;2023-03-14T02:04:03;6.67;;;1.63;;
41817;SDS011;27493;51.730;5.294;2023-03-14T02:06:51;7.27;;;1.90;;
41817;SDS011;27493;51.730;5.294;2023-03-14T02:09:15;5.47;;;1.70;;
41817;SDS011;27493;51.730;5.294;2023-03-14T02:11:40;6.83;;;2.00;;
41817;SDS011;27493;51.730;5.294;2023-03-14T02:14:06;8.70;;;2.47;;
41817;SDS011;27493;51.730;5.294;2023-03-14T02:16:32;6.80;;;1.80;;
41817;SDS011;27493;51.730;5.294;2023-03-14T02:18:58;8.53;;;1.90;;
41817;SDS011;27493;51.730;5.294;2023-03-14T02:21:25;5.60;;;2.30;;
41817;SDS011;27493;51.730;5.294;2023-03-14T02:26:20;4.25;;;1.58;;
41817;SDS011;27493;51.730;5.294;2023-03-14T02:28:46;7.00;;;1.83;;
41817;SDS011;27493;51.730;5.294;2023-03-14T02:31:11;6.97;;;1.87;;
41817;SDS011;27493;51.730;5.294;2023-03-14T02:33:37;7.47;;;1.93;;
41817;SDS011;27493;51.730;5.294;2023-03-14T02:36:04;4.27;;;1.90;;
41817;SDS011;27493;51.730;5.294;2023-03-14T02:38:37;4.23;;;1.77;;
41817;SDS011;27493;51.730;5.294;2023-03-14T02:41:06;4.93;;;1.83;;
41817;SDS011;27493;51.730;5.294;2023-03-14T02:43:31;6.47;;;1.77;;
41817;SDS011;27493;51.730;5.294;2023-03-14T02:45:57;7.20;;;2.63;;
41817;SDS011;27493;51.730;5.294;2023-03-14T02:48:29;7.23;;;2.50;;
41817;SDS011;27493;51.730;5.294;2023-03-14T02:50:57;6.80;;;2.20;;
41817;SDS011;27493;51.730;5.294;2023-03-14T02:53:28;5.37;;;2.07;;
41817;SDS011;27493;51.730;5.294;2023-03-14T02:55:54;10.63;;;2.30;;
41817;SDS011;27493;51.730;5.294;2023-03-14T02:58:19;10.73;;;2.60;;
41817;SDS011;27493;51.730;5.294;2023-03-14T03:00:44;8.50;;;2.47;;
41817;SDS011;27493;51.730;5.294;2023-03-14T03:03:09;6.03;;;2.20;;
41817;SDS011;27493;51.730;5.294;2023-03-14T03:05:35;13.27;;;2.70;;
41817;SDS011;27493;51.730;5.294;2023-03-14T03:08:00;6.43;;;2.23;;
41817;SDS011;27493;51.730;5.294;2023-03-14T03:10:26;5.50;;;2.60;;
41817;SDS011;27493;51.730;5.294;2023-03-14T03:12:51;5.83;;;2.83;;
41817;SDS011;27493;51.730;5.294;2023-03-14T03:15:17;8.30;;;2.63;;
41817;SDS011;27493;51.730;5.294;2023-03-14T03:17:42;7.33;;;2.67;;
41817;SDS011;27493;51.730;5.294;2023-03-14T03:20:08;7.83;;;2.70;;
41817;SDS011;27493;51.730;5.294;2023-03-14T03:22:34;5.50;;;2.10;;
41817;SDS011;27493;51.730;5.294;2023-03-14T03:24:59;7.30;;;2.40;;
41817;SDS011;27493;51.730;5.294;2023-03-14T03:27:24;9.33;;;2.50;;
41817;SDS011;27493;51.730;5.294;2023-03-14T03:29:49;6.43;;;2.30;;
41817;SDS011;27493;51.730;5.294;2023-03-14T03:32:15;6.60;;;2.17;;
41817;SDS011;27493;51.730;5.294;2023-03-14T03:34:40;14.60;;;3.10;;
41817;SDS011;27493;51.730;5.294;2023-03-14T03:37:05;5.87;;;1.77;;
41817;SDS011;27493;51.730;5.294;2023-03-14T03:39:30;8.87;;;2.20;;
41817;SDS011;27493;51.730;5.294;2023-03-14T03:41:55;7.73;;;2.13;;
41817;SDS011;27493;51.730;5.294;2023-03-14T03:44:21;6.40;;;2.20;;
41817;SDS011;27493;51.730;5.294;2023-03-14T03:46:46;12.83;;;2.77;;
41817;SDS011;27493;51.730;5.294;2023-03-14T03:49:11;10.70;;;2.03;;
41817;SDS011;27493;51.730;5.294;2023-03-14T03:51:36;8.43;;;2.40;;
41817;SDS011;27493;51.730;5.294;2023-03-14T03:54:01;7.60;;;2.50;;
41817;SDS011;27493;51.730;5.294;2023-03-14T03:56:26;7.50;;;2.13;;
41817;SDS011;27493;51.730;5.294;2023-03-14T03:58:52;8.03;;;2.20;;
41817;SDS011;27493;51.730;5.294;2023-03-14T04:01:17;7.10;;;2.20;;
41817;SDS011;27493;51.730;5.294;2023-03-14T04:03:42;4.57;;;1.90;;
41817;SDS011;27493;51.730;5.294;2023-03-14T04:06:08;5.30;;;1.80;;
41817;SDS011;27493;51.730;5.294;2023-03-14T04:08:34;5.43;;;1.70;;
41817;SDS011;27493;51.730;5.294;2023-03-14T04:11:00;9.27;;;2.37;;
41817;SDS011;27493;51.730;5.294;2023-03-14T04:13:26;8.73;;;2.27;;
41817;SDS011;27493;51.730;5.294;2023-03-14T04:15:51;7.20;;;1.73;;
41817;SDS011;27493;51.730;5.294;2023-03-14T04:18:16;5.43;;;1.93;;
41817;SDS011;27493;51.730;5.294;2023-03-14T04:20:42;6.87;;;1.73;;
41817;SDS011;27493;51.730;5.294;2023-03-14T04:23:07;6.63;;;1.77;;
41817;SDS011;27493;51.730;5.294;2023-03-14T04:25:32;9.50;;;2.80;;
41817;SDS011;27493;51.730;5.294;2023-03-14T04:27:57;5.10;;;1.47;;
41817;SDS011;27493;51.730;5.294;2023-03-14T04:30:22;6.33;;;1.90;;
41817;SDS011;27493;51.730;5.294;2023-03-14T04:32:48;6.07;;;1.67;;
41817;SDS011;27493;51.730;5.294;2023-03-14T04:35:13;4.67;;;1.80;;
41817;SDS011;27493;51.730;5.294;2023-03-14T04:37:38;7.53;;;2.30;;
41817;SDS011;27493;51.730;5.294;2023-03-14T04:40:03;4.23;;;2.00;;
41817;SDS011;27493;51.730;5.294;2023-03-14T04:42:31;4.97;;;1.97;;
41817;SDS011;27493;51.730;5.294;2023-03-14T04:44:56;6.50;;;1.80;;
41817;SDS011;27493;51.730;5.294;2023-03-14T04:47:21;6.33;;;2.10;;
41817;SDS011;27493;51.730;5.294;2023-03-14T04:49:46;6.77;;;2.53;;
41817;SDS011;27493;51.730;5.294;2023-03-14T04:52:11;8.70;;;2.13;;
41817;SDS011;27493;51.730;5.294;2023-03-14T04:54:37;7.43;;;2.10;;
41817;SDS011;27493;51.730;5.294;2023-03-14T04:57:02;3.80;;;1.80;;
41817;SDS011;27493;51.730;5.294;2023-03-14T04:59:27;6.77;;;2.00;;
41817;SDS011;27493;51.730;5.294;2023-03-14T05:01:52;5.13;;;1.73;;
41817;SDS011;27493;51.730;5.294;2023-03-14T05:04:17;6.57;;;2.60;;
41817;SDS011;27493;51.730;5.294;2023-03-14T05:06:43;4.23;;;2.00;;
41817;SDS011;27493;51.730;5.294;2023-03-14T05:09:08;4.67;;;2.00;;
41817;SDS011;27493;51.730;5.294;2023-03-14T05:11:33;8.43;;;2.30;;
41817;SDS011;27493;51.730;5.294;2023-03-14T05:13:58;7.00;;;2.07;;
41817;SDS011;27493;51.730;5.294;2023-03-14T05:16:23;4.83;;;2.10;;
41817;SDS011;27493;51.730;5.294;2023-03-14T05:18:49;5.83;;;2.07;;
41817;SDS011;27493;51.730;5.294;2023-03-14T05:21:15;4.60;;;2.20;;
41817;SDS011;27493;51.730;5.294;2023-03-14T05:23:40;10.53;;;2.43;;
41817;SDS011;27493;51.730;5.294;2023-03-14T05:26:05;7.37;;;2.20;;
41817;SDS011;27493;51.730;5.294;2023-03-14T05:28:30;4.73;;;2.77;;
41817;SDS011;27493;51.730;5.294;2023-03-14T05:30:56;6.97;;;3.37;;
41817;SDS011;27493;51.730;5.294;2023-03-14T05:33:21;6.70;;;2.90;;
41817;SDS011;27493;51.730;5.294;2023-03-14T05:35:46;5.70;;;3.17;;
41817;SDS011;27493;51.730;5.294;2023-03-14T05:38:11;5.10;;;2.93;;
41817;SDS011;27493;51.730;5.294;2023-03-14T05:40:36;5.90;;;3.30;;
41817;SDS011;27493;51.730;5.294;2023-03-14T05:43:02;6.27;;;3.60;;
41817;SDS011;27493;51.730;5.294;2023-03-14T05:45:27;7.93;;;3.73;;
41817;SDS011;27493;51.730;5.294;2023-03-14T05:47:52;7.23;;;4.10;;
41817;SDS011;27493;51.730;5.294;2023-03-14T05:50:17;6.53;;;3.67;;
41817;SDS011;27493;51.730;5.294;2023-03-14T05:52:42;8.13;;;4.00;;
41817;SDS011;27493;51.730;5.294;2023-03-14T05:55:08;7.83;;;4.37;;
41817;SDS011;27493;51.730;5.294;2023-03-14T05:57:33;6.90;;;3.97;;
41817;SDS011;27493;51.730;5.294;2023-03-14T05:59:58;7.57;;;4.20;;
41817;SDS011;27493;51.730;5.294;2023-03-14T06:02:23;10.53;;;4.67;;
41817;SDS011;27493;51.730;5.294;2023-03-14T06:04:48;6.67;;;4.10;;
41817;SDS011;27493;51.730;5.294;2023-03-14T06:07:14;12.43;;;4.80;;
41817;SDS011;27493;51.730;5.294;2023-03-14T06:09:39;10.97;;;5.20;;
41817;SDS011;27493;51.730;5.294;2023-03-14T06:12:05;9.20;;;4.80;;
41817;SDS011;27493;51.730;5.294;2023-03-14T06:14:30;8.63;;;4.17;;
41817;SDS011;27493;51.730;5.294;2023-03-14T06:16:55;9.77;;;4.63;;
41817;SDS011;27493;51.730;5.294;2023-03-14T06:19:20;9.63;;;4.93;;
41817;SDS011;27493;51.730;5.294;2023-03-14T06:21:46;8.73;;;5.33;;
41817;SDS011;27493;51.730;5.294;2023-03-14T06:24:11;8.50;;;4.40;;
41817;SDS011;27493;51.730;5.294;2023-03-14T06:26:36;10.03;;;5.33;;
41817;SDS011;27493;51.730;5.294;2023-03-14T06:29:01;9.27;;;5.17;;
41817;SDS011;27493;51.730;5.294;2023-03-14T06:31:29;9.37;;;4.87;;
41817;SDS011;27493;51.730;5.294;2023-03-14T06:33:54;8.37;;;5.50;;
41817;SDS011;27493;51.730;5.294;2023-03-14T06:36:19;8.60;;;4.90;;
41817;SDS011;27493;51.730;5.294;2023-03-14T06:38:45;8.03;;;5.40;;
41817;SDS011;27493;51.730;5.294;2023-03-14T06:41:10;8.77;;;4.77;;
41817;SDS011;27493;51.730;5.294;2023-03-14T06:43:35;8.73;;;4.90;;
41817;SDS011;27493;51.730;5.294;2023-03-14T06:46:00;9.70;;;5.10;;
41817;SDS011;27493;51.730;5.294;2023-03-14T06:48:25;9.57;;;5.23;;
41817;SDS011;27493;51.730;5.294;2023-03-14T06:50:51;9.33;;;5.17;;
41817;SDS011;27493;51.730;5.294;2023-03-14T06:53:16;12.60;;;5.40;;
41817;SDS011;27493;51.730;5.294;2023-03-14T06:55:41;8.93;;;4.90;;
41817;SDS011;27493;51.730;5.294;2023-03-14T06:58:08;11.63;;;5.97;;
41817;SDS011;27493;51.730;5.294;2023-03-14T07:00:33;9.93;;;5.67;;
41817;SDS011;27493;51.730;5.294;2023-03-14T07:02:58;4.83;;;2.20;;
41817;SDS011;27493;51.730;5.294;2023-03-14T07:05:23;3.57;;;1.60;;
41817;SDS011;27493;51.730;5.294;2023-03-14T07:07:49;2.53;;;1.43;;
41817;SDS011;27493;51.730;5.294;2023-03-14T07:10:14;2.63;;;1.20;;
41817;SDS011;27493;51.730;5.294;2023-03-14T07:12:39;4.90;;;1.13;;
41817;SDS011;27493;51.730;5.294;2023-03-14T07:15:04;4.60;;;1.17;;
41817;SDS011;27493;51.730;5.294;2023-03-14T07:17:30;2.10;;;1.10;;
41817;SDS011;27493;51.730;5.294;2023-03-14T07:19:55;2.37;;;1.00;;
41817;SDS011;27493;51.730;5.294;2023-03-14T07:22:20;1.73;;;1.40;;
41817;SDS011;27493;51.730;5.294;2023-03-14T07:24:45;1.87;;;1.27;;
41817;SDS011;27493;51.730;5.294;2023-03-14T07:27:10;2.87;;;1.60;;
41817;SDS011;27493;51.730;5.294;2023-03-14T07:29:35;1.97;;;1.33;;
41817;SDS011;27493;51.730;5.294;2023-03-14T07:32:01;4.03;;;1.93;;
41817;SDS011;27493;51.730;5.294;2023-03-14T07:34:26;5.83;;;1.90;;
41817;SDS011;27493;51.730;5.294;2023-03-14T07:36:51;3.33;;;1.70;;
41817;SDS011;27493;51.730;5.294;2023-03-14T07:39:16;4.10;;;1.63;;
41817;SDS011;27493;51.730;5.294;2023-03-14T07:41:41;6.37;;;1.77;;
41817;SDS011;27493;51.730;5.294;2023-03-14T07:44:07;3.03;;;1.80;;
41817;SDS011;27493;51.730;5.294;2023-03-14T07:46:32;6.13;;;2.33;;
41817;SDS011;27493;51.730;5.294;2023-03-14T07:48:57;2.60;;;1.70;;
41817;SDS011;27493;51.730;5.294;2023-03-14T07:51:22;4.57;;;1.70;;
41817;SDS011;27493;51.730;5.294;2023-03-14T07:53:47;4.90;;;1.57;;
41817;SDS011;27493;51.730;5.294;2023-03-14T07:56:13;2.43;;;1.40;;
41817;SDS011;27493;51.730;5.294;2023-03-14T07:58:38;3.00;;;1.70;;
41817;SDS011;27493;51.730;5.294;2023-03-14T08:01:03;6.90;;;1.60;;
41817;SDS011;27493;51.730;5.294;2023-03-14T08:03:28;3.23;;;1.40;;
41817;SDS011;27493;51.730;5.294;2023-03-14T08:05:53;3.83;;;1.30;;
41817;SDS011;27493;51.730;5.294;2023-03-14T08:08:19;3.53;;;1.60;;
41817;SDS011;27493;51.730;5.294;2023-03-14T08:10:44;3.47;;;1.50;;
41817;SDS011;27493;51.730;5.294;2023-03-14T08:13:11;6.53;;;1.43;;
41817;SDS011;27493;51.730;5.294;2023-03-14T08:15:36;6.67;;;2.07;;
41817;SDS011;27493;51.730;5.294;2023-03-14T08:18:02;3.23;;;1.60;;
41817;SDS011;27493;51.730;5.294;2023-03-14T08:20:27;3.27;;;2.10;;
41817;SDS011;27493;51.730;5.294;2023-03-14T08:22:55;2.70;;;1.30;;
41817;SDS011;27493;51.730;5.294;2023-03-14T08:25:20;3.33;;;1.60;;
41817;SDS011;27493;51.730;5.294;2023-03-14T08:27:45;6.97;;;1.80;;
41817;SDS011;27493;51.730;5.294;2023-03-14T08:30:11;4.27;;;1.80;;
41817;SDS011;27493;51.730;5.294;2023-03-14T08:32:37;5.70;;;1.60;;
41817;SDS011;27493;51.730;5.294;2023-03-14T08:35:03;7.47;;;1.73;;
41817;SDS011;27493;51.730;5.294;2023-03-14T08:37:30;4.83;;;2.00;;
41817;SDS011;27493;51.730;5.294;2023-03-14T08:39:55;4.70;;;1.90;;
41817;SDS011;27493;51.730;5.294;2023-03-14T08:42:20;2.43;;;1.33;;
41817;SDS011;27493;51.730;5.294;2023-03-14T08:44:46;1.83;;;0.80;;
41817;SDS011;27493;51.730;5.294;2023-03-14T08:47:11;1.37;;;0.87;;
41817;SDS011;27493;51.730;5.294;2023-03-14T08:49:36;8.67;;;1.33;;
41817;SDS011;27493;51.730;5.294;2023-03-14T08:52:04;1.27;;;0.97;;
41817;SDS011;27493;51.730;5.294;2023-03-14T08:54:30;5.97;;;1.30;;
41817;SDS011;27493;51.730;5.294;2023-03-14T08:56:55;2.87;;;1.20;;
41817;SDS011;27493;51.730;5.294;2023-03-14T08:59:20;5.60;;;1.67;;
41817;SDS011;27493;51.730;5.294;2023-03-14T09:01:46;5.13;;;1.63;;
41817;SDS011;27493;51.730;5.294;2023-03-14T09:04:11;3.20;;;1.30;;
41817;SDS011;27493;51.730;5.294;2023-03-14T09:06:36;4.77;;;1.80;;
41817;SDS011;27493;51.730;5.294;2023-03-14T09:09:02;3.10;;;1.63;;
41817;SDS011;27493;51.730;5.294;2023-03-14T09:11:27;1.10;;;0.77;;
41817;SDS011;27493;51.730;5.294;2023-03-14T09:13:52;3.57;;;1.20;;
41817;SDS011;27493;51.730;5.294;2023-03-14T09:16:17;1.10;;;0.60;;
41817;SDS011;27493;51.730;5.294;2023-03-14T09:18:43;0.70;;;0.70;;
41817;SDS011;27493;51.730;5.294;2023-03-14T09:21:08;1.60;;;0.50;;
41817;SDS011;27493;51.730;5.294;2023-03-14T09:23:33;3.30;;;0.77;;
41817;SDS011;27493;51.730;5.294;2023-03-14T09:25:59;2.60;;;0.80;;
41817;SDS011;27493;51.730;5.294;2023-03-14T09:28:25;2.37;;;0.80;;
41817;SDS011;27493;51.730;5.294;2023-03-14T09:30:50;2.10;;;0.87;;
41817;SDS011;27493;51.730;5.294;2023-03-14T09:33:16;5.20;;;0.87;;
41817;SDS011;27493;51.730;5.294;2023-03-14T09:35:41;3.83;;;0.90;;
41817;SDS011;27493;51.730;5.294;2023-03-14T09:38:06;1.43;;;1.00;;
41817;SDS011;27493;51.730;5.294;2023-03-14T09:40:33;5.57;;;0.90;;
41817;SDS011;27493;51.730;5.294;2023-03-14T09:42:59;3.17;;;0.90;;
41817;SDS011;27493;51.730;5.294;2023-03-14T09:47:49;3.53;;;1.00;;
41817;SDS011;27493;51.730;5.294;2023-03-14T09:50:15;6.90;;;2.23;;
41817;SDS011;27493;51.730;5.294;2023-03-14T09:52:41;2.23;;;1.10;;
41817;SDS011;27493;51.730;5.294;2023-03-14T09:57:36;4.27;;;1.73;;
41817;SDS011;27493;51.730;5.294;2023-03-14T10:00:43;5.50;;;1.40;;
41817;SDS011;27493;51.730;5.294;2023-03-14T10:02:51;7.33;;;1.37;;
41817;SDS011;27493;51.730;5.294;2023-03-14T10:05:18;6.23;;;1.50;;
41817;SDS011;27493;51.730;5.294;2023-03-14T10:07:44;5.10;;;1.70;;
41817;SDS011;27493;51.730;5.294;2023-03-14T10:10:19;7.27;;;2.00;;
41817;SDS011;27493;51.730;5.294;2023-03-14T10:12:52;10.47;;;1.90;;
41817;SDS011;27493;51.730;5.294;2023-03-14T10:15:22;13.40;;;1.97;;
41817;SDS011;27493;51.730;5.294;2023-03-14T10:17:49;10.23;;;2.10;;
41817;SDS011;27493;51.730;5.294;2023-03-14T10:21:01;12.17;;;2.03;;
41817;SDS011;27493;51.730;5.294;2023-03-14T10:25:29;12.77;;;2.40;;
41817;SDS011;27493;51.730;5.294;2023-03-14T10:27:55;10.90;;;2.17;;
41817;SDS011;27493;51.730;5.294;2023-03-14T10:30:27;6.97;;;1.83;;
41817;SDS011;27493;51.730;5.294;2023-03-14T10:32:53;11.50;;;2.40;;
41817;SDS011;27493;51.730;5.294;2023-03-14T10:35:20;13.43;;;2.50;;
41817;SDS011;27493;51.730;5.294;2023-03-14T10:40:14;7.83;;;1.67;;
41817;SDS011;27493;51.730;5.294;2023-03-14T10:42:39;7.37;;;2.50;;
41817;SDS011;27493;51.730;5.294;2023-03-14T10:45:18;14.73;;;2.27;;
41817;SDS011;27493;51.730;5.294;2023-03-14T10:47:50;10.30;;;2.33;;
41817;SDS011;27493;51.730;5.294;2023-03-14T10:50:33;8.03;;;1.80;;
41817;SDS011;27493;51.730;5.294;2023-03-14T10:53:02;13.23;;;2.63;;
41817;SDS011;27493;51.730;5.294;2023-03-14T10:55:39;11.87;;;2.27;;
41817;SDS011;27493;51.730;5.294;2023-03-14T10:58:04;9.50;;;2.30;;
41817;SDS011;27493;51.730;5.294;2023-03-14T11:00:29;9.73;;;1.93;;
41817;SDS011;27493;51.730;5.294;2023-03-14T11:07:49;11.67;;;2.53;;
41817;SDS011;27493;51.730;5.294;2023-03-14T11:10:35;9.30;;;2.23;;
41817;SDS011;27493;51.730;5.294;2023-03-14T11:15:34;8.47;;;2.07;;
41817;SDS011;27493;51.730;5.294;2023-03-14T11:18:23;12.23;;;2.87;;
41817;SDS011;27493;51.730;5.294;2023-03-14T11:20:55;11.13;;;2.33;;
41817;SDS011;27493;51.730;5.294;2023-03-14T11:23:27;18.70;;;3.83;;
41817;SDS011;27493;51.730;5.294;2023-03-14T11:28:24;13.83;;;3.03;;
41817;SDS011;27493;51.730;5.294;2023-03-14T11:33:17;16.93;;;2.70;;
41817;SDS011;27493;51.730;5.294;2023-03-14T11:40:49;11.37;;;2.73;;
41817;SDS011;27493;51.730;5.294;2023-03-14T11:43:35;11.93;;;2.67;;
41817;SDS011;27493;51.730;5.294;2023-03-14T11:46:03;10.20;;;2.50;;
41817;SDS011;27493;51.730;5.294;2023-03-14T11:48:40;8.87;;;1.80;;
41817;SDS011;27493;51.730;5.294;2023-03-14T11:51:12;11.13;;;2.73;;
41817;SDS011;27493;51.730;5.294;2023-03-14T11:56:11;12.17;;;2.90;;
41817;SDS011;27493;51.730;5.294;2023-03-14T11:58:38;18.30;;;2.37;;
41817;SDS011;27493;51.730;5.294;2023-03-14T12:01:08;18.53;;;2.57;;
41817;SDS011;27493;51.730;5.294;2023-03-14T12:06:02;10.13;;;3.20;;
41817;SDS011;27493;51.730;5.294;2023-03-14T12:08:45;17.53;;;3.27;;
41817;SDS011;27493;51.730;5.294;2023-03-14T12:11:17;16.37;;;3.00;;
41817;SDS011;27493;51.730;5.294;2023-03-14T12:13:50;15.67;;;3.37;;
41817;SDS011;27493;51.730;5.294;2023-03-14T12:18:47;14.83;;;2.83;;
41817;SDS011;27493;51.730;5.294;2023-03-14T12:21:13;17.13;;;3.20;;
41817;SDS011;27493;51.730;5.294;2023-03-14T12:23:42;15.63;;;2.83;;
41817;SDS011;27493;51.730;5.294;2023-03-14T12:28:33;14.20;;;2.73;;
41817;SDS011;27493;51.730;5.294;2023-03-14T12:31:28;10.37;;;2.60;;
41817;SDS011;27493;51.730;5.294;2023-03-14T12:33:44;7.53;;;2.57;;
41817;SDS011;27493;51.730;5.294;2023-03-14T12:36:18;10.07;;;2.80;;
41817;SDS011;27493;51.730;5.294;2023-03-14T12:41:20;9.77;;;2.50;;
41817;SDS011;27493;51.730;5.294;2023-03-14T12:43:46;6.87;;;2.20;;
41817;SDS011;27493;51.730;5.294;2023-03-14T12:46:19;12.40;;;2.50;;
41817;SDS011;27493;51.730;5.294;2023-03-14T12:48:55;14.37;;;2.20;;
41817;SDS011;27493;51.730;5.294;2023-03-14T12:51:29;7.50;;;2.00;;
41817;SDS011;27493;51.730;5.294;2023-03-14T12:53:59;11.63;;;1.90;;
41817;SDS011;27493;51.730;5.294;2023-03-14T13:01:34;7.35;;;1.63;;
41817;SDS011;27493;51.730;5.294;2023-03-14T13:04:09;7.63;;;2.07;;
41817;SDS011;27493;51.730;5.294;2023-03-14T13:06:50;8.60;;;1.97;;
41817;SDS011;27493;51.730;5.294;2023-03-14T13:11:54;8.37;;;2.60;;
41817;SDS011;27493;51.730;5.294;2023-03-14T13:14:19;9.57;;;1.97;;
41817;SDS011;27493;51.730;5.294;2023-03-14T13:16:46;9.70;;;2.10;;
41817;SDS011;27493;51.730;5.294;2023-03-14T13:19:14;6.00;;;1.80;;
41817;SDS011;27493;51.730;5.294;2023-03-14T13:21:42;10.53;;;2.40;;
41817;SDS011;27493;51.730;5.294;2023-03-14T13:24:20;12.43;;;2.23;;
41817;SDS011;27493;51.730;5.294;2023-03-14T13:26:45;10.33;;;1.90;;
41817;SDS011;27493;51.730;5.294;2023-03-14T13:29:20;10.87;;;2.63;;
41817;SDS011;27493;51.730;5.294;2023-03-14T13:31:47;7.83;;;2.87;;
41817;SDS011;27493;51.730;5.294;2023-03-14T13:34:12;8.67;;;2.23;;
41817;SDS011;27493;51.730;5.294;2023-03-14T13:36:37;6.53;;;2.10;;
41817;SDS011;27493;51.730;5.294;2023-03-14T13:39:03;5.27;;;1.83;;
41817;SDS011;27493;51.730;5.294;2023-03-14T13:41:29;7.93;;;1.83;;
41817;SDS011;27493;51.730;5.294;2023-03-14T13:44:03;7.50;;;2.40;;
41817;SDS011;27493;51.730;5.294;2023-03-14T13:46:30;4.90;;;1.80;;
41817;SDS011;27493;51.730;5.294;2023-03-14T13:48:58;8.03;;;2.17;;
41817;SDS011;27493;51.730;5.294;2023-03-14T13:51:25;6.47;;;2.20;;
41817;SDS011;27493;51.730;5.294;2023-03-14T13:53:55;8.73;;;2.10;;
41817;SDS011;27493;51.730;5.294;2023-03-14T13:56:41;7.57;;;1.67;;
41817;SDS011;27493;51.730;5.294;2023-03-14T13:59:20;5.67;;;1.93;;
41817;SDS011;27493;51.730;5.294;2023-03-14T14:01:45;10.00;;;2.37;;
41817;SDS011;27493;51.730;5.294;2023-03-14T14:04:15;6.40;;;1.93;;
41817;SDS011;27493;51.730;5.294;2023-03-14T14:06:44;5.87;;;1.60;;
41817;SDS011;27493;51.730;5.294;2023-03-14T14:09:12;4.47;;;1.80;;
41817;SDS011;27493;51.730;5.294;2023-03-14T14:14:17;10.17;;;2.20;;
41817;SDS011;27493;51.730;5.294;2023-03-14T14:25:52;8.23;;;1.90;;
41817;SDS011;27493;51.730;5.294;2023-03-14T14:28:27;6.07;;;2.00;;
41817;SDS011;27493;51.730;5.294;2023-03-14T14:31:02;5.83;;;1.70;;
41817;SDS011;27493;51.730;5.294;2023-03-14T14:33:28;5.97;;;1.60;;
41817;SDS011;27493;51.730;5.294;2023-03-14T14:35:54;6.70;;;2.23;;
41817;SDS011;27493;51.730;5.294;2023-03-14T14:38:20;7.40;;;1.47;;
41817;SDS011;27493;51.730;5.294;2023-03-14T14:40:48;4.50;;;1.70;;
41817;SDS011;27493;51.730;5.294;2023-03-14T14:43:17;6.07;;;1.80;;
41817;SDS011;27493;51.730;5.294;2023-03-14T14:45:43;3.97;;;1.50;;
41817;SDS011;27493;51.730;5.294;2023-03-14T14:48:10;8.00;;;2.00;;
41817;SDS011;27493;51.730;5.294;2023-03-14T14:50:37;5.43;;;1.60;;
41817;SDS011;27493;51.730;5.294;2023-03-14T14:53:26;7.30;;;1.83;;
41817;SDS011;27493;51.730;5.294;2023-03-14T14:55:52;9.70;;;2.13;;
41817;SDS011;27493;51.730;5.294;2023-03-14T14:58:23;8.00;;;2.23;;
41817;SDS011;27493;51.730;5.294;2023-03-14T15:00:53;5.87;;;1.60;;
41817;SDS011;27493;51.730;5.294;2023-03-14T15:03:19;7.90;;;1.73;;
41817;SDS011;27493;51.730;5.294;2023-03-14T15:05:44;6.00;;;1.40;;
41817;SDS011;27493;51.730;5.294;2023-03-14T15:08:11;8.33;;;1.60;;
41817;SDS011;27493;51.730;5.294;2023-03-14T15:10:36;5.13;;;1.60;;
41817;SDS011;27493;51.730;5.294;2023-03-14T15:13:01;8.07;;;1.67;;
41817;SDS011;27493;51.730;5.294;2023-03-14T15:15:27;8.80;;;1.90;;
41817;SDS011;27493;51.730;5.294;2023-03-14T15:17:52;6.00;;;1.90;;
41817;SDS011;27493;51.730;5.294;2023-03-14T15:20:17;8.00;;;1.83;;
41817;SDS011;27493;51.730;5.294;2023-03-14T15:22:44;7.47;;;1.67;;
41817;SDS011;27493;51.730;5.294;2023-03-14T15:25:09;5.50;;;1.80;;
41817;SDS011;27493;51.730;5.294;2023-03-14T15:27:35;7.63;;;2.00;;
41817;SDS011;27493;51.730;5.294;2023-03-14T15:30:00;10.17;;;1.90;;
41817;SDS011;27493;51.730;5.294;2023-03-14T15:32:26;4.47;;;2.00;;
41817;SDS011;27493;51.730;5.294;2023-03-14T15:34:55;7.87;;;2.07;;
41817;SDS011;27493;51.730;5.294;2023-03-14T15:37:20;7.73;;;2.10;;
41817;SDS011;27493;51.730;5.294;2023-03-14T15:39:46;12.13;;;2.23;;
41817;SDS011;27493;51.730;5.294;2023-03-14T15:42:11;9.83;;;1.83;;
41817;SDS011;27493;51.730;5.294;2023-03-14T15:44:37;8.03;;;2.10;;
41817;SDS011;27493;51.730;5.294;2023-03-14T15:47:02;6.37;;;1.43;;
41817;SDS011;27493;51.730;5.294;2023-03-14T15:49:27;8.43;;;1.50;;
41817;SDS011;27493;51.730;5.294;2023-03-14T15:51:52;5.27;;;1.83;;